Latest Coastal Weather Observations for Taree Airport

IDN60701

Issued at 9:55 pm EST Wednesday 23 April 2014 (issued every 10 minutes, with the page automatically refreshed every 10 minutes)

About coastal observations | Map of coastal stations | Coastal observations for NSW | Marine services | Other Formats
Station Details ID: 060141 Name: TAREE AIRPORT AWS Lat: -31.89 Lon: 152.51 Height: 8.0 m
Data from the previous 72 hours. | See also: Recent months at Taree Airport
Date/Time
EST
Temp

°C
Wind Pressure Rain
since 9am
mm
Weather Cloud Vis
km
Sea
Height
m
Swell
Dir
 
Speed
knots
Gust
knots
hPa Trend Height
m
Period
s
Dir
23/09:30pm 17.5 NW 5 5 1015.9 - 0.0 - - - - - - -
23/09:00pm 17.1 CALM 0 0 1015.9 - 0.0 - - - - - - -
23/08:30pm 18.9 CALM 0 0 1016.0 - 0.0 - - - - - - -
23/08:00pm 19.7 SW 2 5 1015.9 - 0.0 - Cloudy - - - - -
23/07:30pm 20.4 SSW 4 4 1015.8 - 0.0 - Partly cloudy - - - - -
23/07:00pm 20.0 SSW 5 6 1015.7 - 0.0 - Partly cloudy - - - - -
23/06:30pm 21.0 CALM 0 0 1015.5 - 0.0 - - - - - - -
23/06:00pm 21.6 CALM 0 0 1015.1 - 0.0 - - - - - - -
23/05:30pm 22.3 ENE 3 5 1014.9 - 0.0 - - - - - - -
23/05:00pm 24.0 E 6 7 1014.6 - 0.0 - - - - - - -
23/04:30pm 25.4 ESE 6 8 1014.4 - 0.0 - - - - - - -
23/04:00pm 26.1 ESE 7 12 1014.3 - 0.0 - - - - - - -
23/03:30pm 26.0 E 8 13 1014.2 - 0.0 - - - - - - -
23/03:00pm 27.0 E 10 14 1013.8 - 0.0 - - - - - - -
23/02:30pm 27.1 ENE 12 17 1013.7 - 0.0 - - - - - - -
23/02:00pm 27.2 ENE 9 13 1013.9 - 0.0 - - - - - - -
23/01:30pm 27.3 E 7 9 1013.9 - 0.0 - - - - - - -
23/01:00pm 26.7 E 5 8 1014.2 - 0.0 - Partly cloudy - - - - -
23/12:30pm 26.4 S 6 8 1014.8 - 0.0 - Partly cloudy - - - - -
23/12:00pm 26.8 SW 5 6 1015.1 - 0.0 - - - - - - -
23/11:30am 26.2 N 1 6 1015.8 - 0.0 - - - - - - -
23/11:00am 25.7 ENE 4 7 1016.4 - 0.0 - - - - - - -
23/10:30am 25.2 CALM 0 2 1016.7 - 0.0 - - - - - - -
23/10:00am 23.6 S 2 5 1017.0 - 0.0 - - - - - - -
23/09:30am 21.9 CALM 0 3 1017.2 - 0.0 - - - - - - -
23/09:00am 20.3 WNW 4 6 1017.4 - 0.0 - - - - - - -
23/08:30am 18.9 WNW 4 5 1017.8 - 0.0 - - - - - - -
23/08:00am 18.1 WNW 3 4 1017.7 - 0.0 - - - - - - -
23/07:30am 17.0 WNW 4 5 1017.6 - 0.0 - - - - - - -
23/07:00am 15.9 WSW 5 6 1017.5 - 0.0 - Partly cloudy - - - - -
23/06:30am 15.3 NW 3 5 1017.2 - 0.0 - - - - - - -
23/06:00am 15.2 WNW 4 5 1016.8 - 0.0 - - - - - - -
23/05:30am 15.4 W 5 7 1016.5 - 0.0 - - - - - - -
23/05:00am 15.7 WSW 4 5 1016.3 - 0.0 - Partly cloudy - - - - -
23/04:30am 16.1 W 3 5 1016.4 - 0.0 - Partly cloudy - - - - -
23/04:00am 16.3 W 4 6 1016.3 - 0.0 - Partly cloudy - - - - -
23/03:30am 16.3 W 4 6 1016.2 - 0.0 - Partly cloudy - - - - -
23/03:00am 16.0 NNW 4 5 1016.1 - 0.0 - Mostly cloudy - - - - -
23/02:30am 16.2 NNW 4 5 1016.3 - 0.0 - Partly cloudy - - - - -
23/02:00am 17.4 WSW 7 8 1016.3 - 0.0 - Cloudy - - - - -
23/01:30am 17.7 W 7 8 1016.4 - 0.0 - Partly cloudy - - - - -
23/01:00am 17.7 W 5 6 1016.5 - 0.0 - Partly cloudy - - - - -
23/12:30am 17.9 W 5 6 1016.6 - 0.0 - Partly cloudy - - - - -
23/12:00am 17.5 W 4 6 1016.3 - 0.0 - - - - - - -
 
Date/Time
EST
Temp

°C
Wind Pressure Rain
since 9am
mm
Weather Cloud Vis
km
Sea
Height
m
Swell
Dir
 
Speed
knots
Gust
knots
hPa Trend Height
m
Period
s
Dir
22/11:30pm 17.8 SW 2 6 1016.4 - 0.0 - - - - - - -
22/11:00pm 17.7 W 5 5 1016.4 - 0.0 - - - - - - -
22/10:30pm 17.4 SW 4 5 1016.5 - 0.0 - - - - - - -
22/10:00pm 16.9 CALM 0 3 1016.5 - 0.0 - - - - - - -
22/09:30pm 17.8 WSW 1 3 1016.5 - 0.0 - - - - - - -
22/09:00pm 18.3 CALM 0 0 1016.4 - 0.0 - - - - - - -
22/08:30pm 19.1 W 5 6 1016.5 - 0.0 - - - - - - -
22/08:00pm 19.4 W 4 5 1016.4 - 0.0 - - - - - - -
22/07:30pm 19.4 SSW 4 5 1016.3 - 0.0 - - - - - - -
22/07:00pm 19.4 SSW 2 6 1016.1 - 0.0 - - - - - - -
22/06:30pm 20.7 CALM 0 0 1016.0 - 0.0 - - - - - - -
22/06:00pm 21.0 ENE 2 4 1015.7 - 0.0 - - - - - - -
22/05:30pm 21.4 NE 5 6 1015.7 - 0.0 - - - - - - -
22/05:00pm 22.7 NE 5 6 1015.5 - 0.0 - - - - - - -
22/04:30pm 23.7 NE 5 7 1015.4 - 0.0 - - - - - - -
22/04:00pm 24.6 ENE 9 10 1015.4 - 0.0 - - - - - - -
22/03:30pm 25.9 ENE 9 11 1015.4 - 0.0 - - - - - - -
22/03:00pm 27.1 N 4 6 1015.3 - 0.0 - - - - - - -
22/02:30pm 26.7 N 4 6 1015.4 - 0.0 - - - - - - -
22/02:00pm 26.7 N 3 6 1015.5 - 0.0 - - - - - - -
22/01:30pm 26.5 NW 4 7 1015.8 - 0.0 - - - - - - -
22/01:00pm 26.4 NW 5 7 1016.1 - 0.0 - - - - - - -
22/12:30pm 25.9 N 5 8 1016.6 - 0.0 - - - - - - -
22/12:00pm 26.0 NW 6 9 1017.0 - 0.0 - - - - - - -
22/11:30am 25.5 NNE 3 6 1017.5 - 0.0 - - - - - - -
22/11:00am 24.2 NNE 4 7 1017.9 - 0.0 - - - - - - -
22/10:30am 22.2 SSE 2 5 1018.4 - 0.0 - - - - - - -
22/10:00am 20.7 W 1 4 1018.6 - 0.0 - - - - - - -
22/09:30am 19.3 SW 4 5 1019.0 - 0.0 - - - - - - -
22/09:00am 17.8 WSW 5 6 1019.2 - 0.0 - - - - - - -
22/08:30am 16.4 WSW 5 7 1019.5 - 0.0 - - - - - - -
22/08:00am 14.6 W 4 4 1019.4 - 0.0 - - - - - - -
22/07:30am 13.3 W 4 5 1019.4 - 0.0 - - - - - - -
22/07:00am 12.5 W 4 6 1019.1 - 0.0 - - - - - - -
22/06:30am 11.8 W 4 5 1019.1 - 0.0 - - - - - - -
22/06:00am 11.1 W 3 4 1018.9 - 0.0 - - - - - - -
22/05:30am 11.2 WNW 1 4 1019.2 - 0.0 - - - - - - -
22/05:00am 10.4 CALM 0 0 1019.0 - 0.0 - - - - - - -
22/04:30am 11.2 CALM 0 0 1019.0 - 0.0 - - - - - - -
22/04:00am 10.9 WNW 2 4 1019.1 - 0.0 - - - - - - -
22/03:30am 12.2 WNW 2 5 1019.1 - 0.0 - - - - - - -
22/03:00am 12.4 W 4 5 1019.0 - 0.0 - - - - - - -
22/02:30am 11.2 WNW 1 3 1019.2 - 0.0 - - - - - - -
22/02:00am 11.3 CALM 0 0 1019.4 - 0.0 - - - - - - -
22/01:30am 11.5 N 2 4 1019.7 - 0.0 - - - - - - -
22/01:00am 13.2 W 4 5 1019.9 - 0.0 - - - - - - -
22/12:30am 13.1 W 4 5 1020.0 - 0.0 - - - - - - -
22/12:00am 13.0 CALM 0 0 1020.1 - 0.0 - - - - - - -
 
Date/Time
EST
Temp

°C
Wind Pressure Rain
since 9am
mm
Weather Cloud Vis
km
Sea
Height
m
Swell
Dir
 
Speed
knots
Gust
knots
hPa Trend Height
m
Period
s
Dir
21/11:30pm 12.6 CALM 0 0 1020.1 - 0.0 - - - - - - -
21/11:00pm 12.8 CALM 0 0 1020.4 - 0.0 - - - - - - -
21/10:30pm 13.5 CALM 0 0 1020.5 - 0.0 - - - - - - -
21/10:00pm 13.7 CALM 0 0 1020.6 - 0.0 - - - - - - -
21/09:30pm 13.7 CALM 0 3 1020.6 - 0.0 - - - - - - -
21/09:00pm 14.0 CALM 0 3 1020.5 - 0.0 - - - - - - -
21/08:30pm 13.7 CALM 0 0 1020.5 - 0.0 - - - - - - -
21/08:00pm 14.4 CALM 0 0 1020.3 - 0.0 - - - - - - -
21/07:30pm 15.1 NW 1 4 1020.2 - 0.0 - - - - - - -
21/07:00pm 15.6 NNW 1 4 1019.8 - 0.0 - - - - - - -
21/06:30pm 16.4 CALM 0 0 1019.4 - 0.0 - - - - - - -
21/06:00pm 18.1 CALM 0 0 1019.0 - 0.0 - - - - - - -
21/05:30pm 18.6 E 3 4 1018.7 - 0.0 - - - - - - -
21/05:00pm 20.5 E 4 5 1018.4 - 0.0 - - - - - - -
21/04:30pm 21.3 ESE 6 8 1018.3 - 0.0 - - - - - - -
21/04:00pm 21.8 ESE 7 10 1018.0 - 0.0 - - - - - - -
21/03:30pm 22.2 SE 8 10 1017.8 - 0.0 - - - - - - -
21/03:00pm 22.5 ESE 8 10 1017.8 - 0.0 - - - - - - -
21/02:30pm 22.6 ESE 8 12 1017.8 - 0.0 - - - - - - -
21/02:00pm 23.0 SE 8 12 1017.8 - 0.0 - - - - - - -
21/01:30pm 23.3 ESE 7 9 1017.9 - 0.0 - - - - - - -
21/01:00pm 23.8 SW 6 8 1018.1 - 0.0 - - - - - - -
21/12:30pm 23.1 SSW 6 9 1018.4 - 0.0 - - - - - - -
21/12:00pm 22.9 SSW 5 9 1018.9 - 0.0 - - - - - - -
21/11:30am 21.9 SW 5 6 1019.5 - 0.0 - - - - - - -
21/11:00am 21.6 W 4 6 1019.7 - 0.0 - - - - - - -
21/10:30am 20.7 W 3 6 1020.0 - 0.0 - - - - - - -
21/10:00am 19.7 W 5 7 1020.3 - 0.0 - - - - - - -
21/09:30am 19.1 W 7 9 1020.5 - 0.0 - - - - - - -
21/09:00am 18.0 W 7 10 1020.4 - 0.0 - - - - - - -
21/08:30am 16.8 W 7 9 1020.4 - 0.0 - - - - - - -
21/08:00am 15.5 W 6 7 1020.2 - 0.0 - - - - - - -
21/07:30am 14.2 WSW 5 7 1019.9 - 0.0 - - - - - - -
21/07:00am 12.8 SW 5 6 1019.2 - 0.0 - - - - - - -
21/06:30am 12.2 W 4 5 1018.9 - 0.0 - - - - - - -
21/06:00am 12.2 W 1 4 1018.3 - 0.0 - - - - - - -
21/05:30am 12.6 W 5 6 1018.1 - 0.0 - - - - - - -
21/05:00am 12.7 CALM 0 0 1017.8 - 0.0 - - - - - - -
21/04:30am 13.4 W 4 5 1017.4 - 0.0 - - - - - - -
21/04:00am 13.9 W 5 5 1017.2 - 0.0 - - - - - - -
21/03:30am 14.5 W 6 8 1016.9 - 0.0 - - - - - - -
21/03:00am 14.7 WNW 8 13 1016.8 - 0.0 - - - - - - -
21/02:30am 15.0 W 8 10 1017.0 - 0.0 - - - - - - -
21/02:00am 15.3 W 6 8 1017.0 - 0.0 - - - - - - -
21/01:30am 15.6 W 7 9 1017.0 - 0.0 - - - - - - -
21/01:00am 15.6 W 6 9 1016.9 - 0.0 - - - - - - -
21/12:30am 15.9 W 7 9 1016.9 - 0.0 - - - - - - -
21/12:00am 15.9 W 5 7 1016.8 - 0.0 - - - - - - -
 
Date/Time
EST
Temp

°C
Wind Pressure Rain
since 9am
mm
Weather Cloud Vis
km
Sea
Height
m
Swell
Dir
 
Speed
knots
Gust
knots
hPa Trend Height
m
Period
s
Dir
20/11:30pm 15.9 W 5 6 1017.0 - 0.0 - - - - - - -
20/11:00pm 16.2 W 4 5 1017.0 - 0.0 - - - - - - -
20/10:30pm 16.4 WNW 1 5 1017.0 - 0.0 - - - - - - -
20/10:00pm 16.6 CALM 0 0 1017.1 - 0.0 - - - - - - -

Other Formats:

Comma delimited format used in spreadsheet applications
http://www.bom.gov.au/fwo/IDN60701/IDN60701.95784.axf

JavaScript Object Notation format (JSON) in row-major order
http://www.bom.gov.au/fwo/IDN60701/IDN60701.95784.json